createdAt,value
2022-08-25T00:00:53.430Z,18.20
2022-08-25T00:03:21.965Z,18.20
2022-08-25T00:05:51.824Z,18.20
2022-08-25T00:08:20.389Z,18.20
2022-08-25T00:11:00.217Z,18.20
2022-08-25T00:13:36.290Z,18.20
2022-08-25T00:16:05.066Z,18.20
2022-08-25T00:18:33.765Z,18.20
2022-08-25T00:21:02.288Z,18.10
2022-08-25T00:23:30.812Z,18.10
2022-08-25T00:26:00.868Z,18.10
2022-08-25T00:28:30.458Z,18.00
2022-08-25T00:31:01.359Z,18.10
2022-08-25T00:33:31.313Z,18.20
2022-08-25T00:36:01.184Z,18.20
2022-08-25T00:38:29.740Z,18.10
2022-08-25T00:41:06.907Z,18.10
2022-08-25T00:43:59.010Z,18.10
2022-08-25T00:46:33.180Z,18.10
2022-08-25T00:49:07.236Z,18.20
2022-08-25T00:51:49.710Z,18.10
2022-08-25T00:54:23.074Z,18.10
2022-08-25T00:56:53.174Z,18.10
2022-08-25T00:59:26.413Z,18.10
2022-08-25T01:01:57.261Z,18.10
2022-08-25T01:04:26.174Z,18.10
2022-08-25T01:06:57.754Z,18.10
2022-08-25T01:09:27.280Z,18.10
2022-08-25T01:11:56.747Z,18.10
2022-08-25T01:14:31.500Z,18.10
2022-08-25T01:17:00.461Z,18.10
2022-08-25T01:19:33.478Z,18.10
2022-08-25T01:22:03.608Z,18.10
2022-08-25T01:24:41.801Z,18.10
2022-08-25T01:27:11.495Z,18.10
2022-08-25T01:29:41.164Z,18.20
2022-08-25T01:32:14.926Z,18.20
2022-08-25T01:34:46.572Z,18.20
2022-08-25T01:37:24.157Z,18.20
2022-08-25T01:39:52.723Z,18.10
2022-08-25T01:42:43.988Z,18.10
2022-08-25T01:45:12.672Z,18.20
2022-08-25T01:48:10.524Z,18.20
2022-08-25T01:50:39.952Z,18.20
2022-08-25T01:53:18.894Z,18.30
2022-08-25T01:55:54.357Z,18.30
2022-08-25T01:58:26.513Z,18.30
2022-08-25T02:00:57.603Z,18.30
2022-08-25T02:03:28.167Z,18.30
2022-08-25T02:05:58.821Z,18.30
2022-08-25T02:08:28.961Z,18.30
2022-08-25T02:10:57.431Z,18.40
2022-08-25T02:13:26.811Z,18.40
2022-08-25T02:16:02.907Z,18.40
2022-08-25T02:18:32.034Z,18.50
2022-08-25T02:21:00.635Z,18.50
2022-08-25T02:23:30.620Z,18.50
2022-08-25T02:25:59.276Z,18.50
2022-08-25T02:28:28.190Z,18.50
2022-08-25T02:31:01.213Z,18.50
2022-08-25T02:33:30.692Z,18.50
2022-08-25T02:36:00.383Z,18.50
2022-08-25T02:38:31.807Z,18.50
2022-08-25T02:41:02.166Z,18.50
2022-08-25T02:43:30.823Z,18.40
2022-08-25T02:45:59.377Z,18.40
2022-08-25T02:48:28.541Z,18.40
2022-08-25T02:51:01.952Z,18.50
2022-08-25T02:53:31.898Z,18.50
2022-08-25T02:56:00.850Z,18.50
2022-08-25T02:58:35.500Z,18.60
2022-08-25T03:01:04.399Z,18.50
2022-08-25T03:03:39.235Z,18.60
2022-08-25T03:06:12.619Z,18.60
2022-08-25T03:08:44.309Z,18.60
2022-08-25T03:11:13.376Z,18.60
2022-08-25T03:13:42.127Z,18.60
2022-08-25T03:16:12.332Z,18.70
2022-08-25T03:18:43.126Z,18.70
2022-08-25T03:21:13.767Z,18.60
2022-08-25T03:23:46.909Z,18.60
2022-08-25T03:26:32.929Z,18.60
2022-08-25T03:29:05.139Z,18.60
2022-08-25T03:31:36.161Z,18.70
2022-08-25T03:34:05.392Z,18.60
2022-08-25T03:36:33.936Z,18.70
2022-08-25T03:39:05.404Z,18.60
2022-08-25T03:41:36.797Z,18.70
2022-08-25T03:44:09.154Z,18.60
2022-08-25T03:46:42.309Z,18.60
2022-08-25T03:49:14.492Z,18.50
2022-08-25T03:52:07.884Z,18.60
2022-08-25T03:54:37.898Z,18.60
2022-08-25T03:57:06.793Z,18.60
2022-08-25T03:59:38.231Z,18.60
2022-08-25T04:02:07.524Z,18.60
2022-08-25T04:04:36.509Z,18.60
2022-08-25T04:07:05.388Z,18.50
2022-08-25T04:09:37.671Z,18.60
2022-08-25T04:12:06.863Z,18.60
2022-08-25T04:14:36.975Z,18.60
2022-08-25T04:17:06.117Z,18.60
2022-08-25T04:19:34.654Z,18.60
2022-08-25T04:22:03.160Z,18.60
2022-08-25T04:35:48.771Z,18.60
2022-08-25T04:38:44.496Z,18.80
2022-08-25T04:41:16.761Z,18.80
2022-08-25T04:43:46.629Z,18.90
2022-08-25T04:46:20.634Z,19.00
2022-08-25T04:48:50.931Z,19.00
2022-08-25T04:51:26.179Z,19.10
2022-08-25T04:53:55.821Z,19.10
2022-08-25T04:56:26.408Z,19.10
2022-08-25T04:58:56.713Z,19.20
2022-08-25T05:01:27.421Z,19.20
2022-08-25T05:04:00.561Z,19.40
2022-08-25T05:06:32.216Z,19.40
2022-08-25T05:09:05.704Z,19.40
2022-08-25T05:11:34.792Z,19.50
2022-08-25T05:14:04.577Z,19.50
2022-08-25T05:16:34.017Z,19.60
2022-08-25T05:19:02.899Z,19.70
2022-08-25T05:21:37.341Z,19.80
2022-08-25T05:24:07.957Z,19.90
2022-08-25T05:26:38.476Z,19.90
2022-08-25T05:29:10.922Z,20.00
2022-08-25T05:31:44.050Z,20.10
2022-08-25T05:34:15.022Z,20.10
2022-08-25T05:36:45.628Z,20.20
2022-08-25T05:39:24.689Z,20.20
2022-08-25T05:41:55.970Z,20.20
2022-08-25T05:44:24.849Z,20.20
2022-08-25T05:46:53.552Z,20.20
2022-08-25T05:49:22.916Z,20.30
2022-08-25T05:51:52.989Z,20.30
2022-08-25T05:54:33.824Z,20.40
2022-08-25T05:57:02.463Z,20.50
2022-08-25T05:59:32.469Z,20.60
2022-08-25T06:02:18.623Z,20.70
2022-08-25T06:04:47.590Z,20.70
2022-08-25T06:07:17.933Z,20.90
2022-08-25T06:09:49.127Z,20.90
2022-08-25T06:12:21.856Z,20.90
2022-08-25T06:14:56.332Z,21.00
2022-08-25T06:17:24.896Z,21.10
2022-08-25T06:19:55.258Z,21.20
2022-08-25T06:22:26.398Z,21.30
2022-08-25T06:24:56.062Z,21.30
2022-08-25T06:27:24.828Z,21.30
2022-08-25T06:29:53.609Z,21.40
2022-08-25T06:32:24.693Z,21.50
2022-08-25T06:34:53.266Z,21.50
2022-08-25T06:37:25.203Z,21.70
2022-08-25T06:39:55.936Z,21.80
2022-08-25T06:42:24.803Z,22.00
2022-08-25T06:44:53.420Z,22.20
2022-08-25T06:48:11.892Z,22.30
2022-08-25T06:50:41.747Z,22.40
2022-08-25T06:53:10.369Z,22.50
2022-08-25T06:55:40.821Z,22.60
2022-08-25T06:58:11.217Z,22.70
2022-08-25T07:00:40.129Z,22.90
2022-08-25T07:03:09.530Z,23.00
2022-08-25T07:05:43.894Z,23.10
2022-08-25T07:08:13.175Z,23.30
2022-08-25T07:10:48.007Z,23.50
2022-08-25T07:13:17.636Z,23.60
2022-08-25T07:15:46.373Z,23.50
2022-08-25T07:18:15.696Z,23.50
2022-08-25T07:20:44.773Z,23.50
2022-08-25T07:23:13.420Z,23.60
2022-08-25T07:25:43.604Z,23.50
2022-08-25T07:28:12.474Z,23.60
2022-08-25T07:30:41.404Z,23.60
2022-08-25T07:33:11.896Z,23.60
2022-08-25T07:35:43.773Z,23.70
2022-08-25T07:38:19.621Z,23.80
2022-08-25T07:40:56.986Z,23.90
2022-08-25T07:43:25.735Z,24.00
2022-08-25T07:45:54.309Z,24.00
2022-08-25T07:48:22.889Z,24.10
2022-08-25T07:51:17.679Z,24.10
2022-08-25T07:54:38.243Z,24.10
2022-08-25T07:57:10.838Z,24.20
2022-08-25T07:59:42.351Z,24.20
2022-08-25T08:02:26.399Z,24.30
2022-08-25T08:04:55.907Z,24.40
2022-08-25T08:07:43.093Z,24.40
2022-08-25T08:13:07.587Z,24.70
2022-08-25T08:15:37.326Z,24.80
2022-08-25T08:18:07.294Z,24.80
2022-08-25T08:20:42.750Z,24.90
2022-08-25T08:23:12.307Z,25.00
2022-08-25T08:25:40.937Z,25.00
2022-08-25T08:28:11.393Z,25.10
2022-08-25T08:30:40.120Z,25.20
2022-08-25T08:33:24.242Z,25.20
2022-08-25T08:35:59.833Z,25.40
2022-08-25T08:38:35.208Z,25.50
2022-08-25T08:42:09.550Z,25.60
2022-08-25T08:44:46.244Z,25.70
2022-08-25T08:47:29.801Z,25.80
2022-08-25T08:50:07.610Z,26.10
2022-08-25T08:52:48.831Z,26.20
2022-08-25T08:55:27.933Z,26.30
2022-08-25T08:58:02.450Z,26.40
2022-08-25T09:00:38.851Z,26.50
2022-08-25T09:03:14.955Z,26.50
2022-08-25T09:05:49.337Z,26.40
2022-08-25T09:08:20.299Z,26.30
2022-08-25T09:11:03.997Z,26.20
2022-08-25T09:13:47.560Z,26.10
2022-08-25T09:16:46.699Z,26.00
2022-08-25T09:19:59.432Z,25.80
2022-08-25T09:22:48.498Z,25.70
2022-08-25T09:25:39.698Z,25.60
2022-08-25T09:28:30.274Z,25.70
2022-08-25T09:31:04.515Z,25.90
2022-08-25T09:33:36.471Z,25.90
2022-08-25T09:36:08.746Z,25.90
2022-08-25T09:38:38.533Z,26.10
2022-08-25T09:41:09.078Z,26.20
2022-08-25T09:43:43.544Z,26.30
2022-08-25T09:46:16.464Z,26.50
2022-08-25T09:48:56.641Z,26.50
2022-08-25T09:51:38.026Z,26.70
2022-08-25T09:54:25.429Z,27.00
2022-08-25T09:57:08.685Z,27.00
2022-08-25T09:59:39.060Z,27.00
2022-08-25T10:02:25.862Z,27.10
2022-08-25T10:04:57.486Z,27.20
2022-08-25T10:07:33.366Z,27.40
2022-08-25T10:10:07.847Z,27.70
2022-08-25T10:12:43.483Z,28.00
2022-08-25T10:15:29.681Z,28.10
2022-08-25T10:18:25.722Z,28.10
2022-08-25T10:21:11.324Z,27.80
2022-08-25T10:23:48.610Z,27.30
2022-08-25T10:26:34.884Z,27.10
2022-08-25T10:29:17.856Z,27.20
2022-08-25T10:31:57.954Z,27.20
2022-08-25T10:34:56.088Z,27.00
2022-08-25T10:37:39.192Z,26.90
2022-08-25T10:40:22.027Z,26.90
2022-08-25T10:43:07.892Z,26.80
2022-08-25T10:45:47.901Z,26.70
2022-08-25T10:48:53.835Z,26.60
2022-08-25T10:51:56.480Z,26.50
2022-08-25T10:54:48.786Z,26.40
2022-08-25T10:57:33.015Z,26.50
2022-08-25T11:00:10.093Z,26.80
2022-08-25T11:03:35.836Z,27.10
2022-08-25T11:06:12.592Z,27.20
2022-08-25T11:08:49.056Z,27.30
2022-08-25T11:11:32.640Z,27.60
2022-08-25T11:14:11.340Z,27.70
2022-08-25T11:16:46.060Z,27.70
2022-08-25T11:19:24.209Z,27.80
2022-08-25T11:22:05.590Z,27.90
2022-08-25T11:24:46.282Z,28.00
2022-08-25T11:27:24.359Z,27.70
2022-08-25T11:30:07.747Z,27.60
2022-08-25T11:32:38.247Z,27.60
2022-08-25T11:35:12.633Z,27.70
2022-08-25T11:38:18.809Z,27.80
2022-08-25T11:41:11.202Z,28.00
2022-08-25T11:44:07.494Z,28.00
2022-08-25T11:47:13.146Z,27.90
2022-08-25T11:50:03.608Z,28.00
2022-08-25T11:52:54.335Z,27.90
2022-08-25T11:55:31.386Z,28.20
2022-08-25T11:58:38.973Z,28.20
2022-08-25T12:01:52.571Z,28.30
2022-08-25T12:04:45.205Z,28.20
2022-08-25T12:08:14.032Z,28.30
2022-08-25T12:11:01.467Z,28.30
2022-08-25T12:13:45.353Z,28.20
2022-08-25T12:17:00.805Z,28.10
2022-08-25T12:20:00.082Z,28.00
2022-08-25T12:22:58.604Z,27.90
2022-08-25T12:25:44.639Z,28.00
2022-08-25T12:28:39.185Z,28.20
2022-08-25T12:31:23.125Z,28.40
2022-08-25T12:34:12.492Z,28.50
2022-08-25T12:36:56.200Z,28.60
2022-08-25T12:39:32.984Z,28.60
2022-08-25T12:42:05.738Z,28.90
2022-08-25T12:44:48.292Z,29.00
2022-08-25T12:47:32.607Z,29.00
2022-08-25T12:50:32.165Z,28.80
2022-08-25T12:53:21.238Z,28.80
2022-08-25T12:55:55.936Z,28.80
2022-08-25T12:58:58.343Z,28.70
2022-08-25T13:01:38.204Z,28.80
2022-08-25T13:04:42.001Z,28.80
2022-08-25T13:07:37.678Z,28.40
2022-08-25T13:10:42.307Z,28.30
2022-08-25T13:13:25.165Z,28.30
2022-08-25T13:16:02.743Z,28.20
2022-08-25T13:18:33.863Z,28.00
2022-08-25T13:21:16.314Z,27.70
2022-08-25T13:24:05.078Z,27.50
2022-08-25T13:26:48.368Z,27.20
2022-08-25T13:29:23.731Z,27.10
2022-08-25T13:31:59.001Z,27.10
2022-08-25T13:34:37.329Z,27.10
2022-08-25T13:37:32.536Z,27.00
2022-08-25T13:40:27.950Z,27.00
2022-08-25T13:43:02.767Z,27.10
2022-08-25T13:45:40.891Z,27.10
2022-08-25T13:48:20.734Z,27.20
2022-08-25T13:50:52.741Z,27.30
2022-08-25T13:53:30.590Z,27.40
2022-08-25T13:56:04.893Z,27.50
2022-08-25T13:58:44.530Z,27.60
2022-08-25T14:01:48.274Z,27.80
2022-08-25T14:04:32.796Z,28.00
2022-08-25T14:07:34.388Z,28.00
2022-08-25T14:10:08.003Z,27.90
2022-08-25T14:12:44.807Z,27.80
2022-08-25T14:15:32.567Z,27.60
2022-08-25T14:18:07.355Z,27.70
2022-08-25T14:20:38.481Z,27.80
2022-08-25T14:23:16.176Z,27.80
2022-08-25T14:25:47.951Z,27.70
2022-08-25T14:28:21.774Z,27.60
2022-08-25T14:30:55.858Z,27.40
2022-08-25T14:33:29.909Z,27.20
2022-08-25T14:36:05.409Z,27.10
2022-08-25T14:38:36.876Z,27.00
2022-08-25T14:43:43.751Z,27.00
2022-08-25T14:46:19.923Z,27.10
2022-08-25T14:48:55.679Z,27.20
2022-08-25T14:51:28.057Z,27.20
2022-08-25T14:54:04.046Z,27.10
2022-08-25T14:56:33.607Z,27.10
2022-08-25T14:59:04.841Z,27.20
2022-08-25T15:01:34.255Z,27.30
2022-08-25T15:04:07.855Z,27.40
2022-08-25T15:06:38.485Z,27.60
2022-08-25T15:09:11.314Z,27.50
2022-08-25T15:11:43.580Z,27.40
2022-08-25T15:14:17.577Z,27.20
2022-08-25T15:16:51.667Z,27.00
2022-08-25T15:19:24.011Z,26.90
2022-08-25T15:21:53.641Z,26.90
2022-08-25T15:24:26.649Z,27.00
2022-08-25T15:26:59.455Z,27.00
2022-08-25T15:29:55.361Z,27.10
2022-08-25T15:32:25.096Z,27.10
2022-08-25T15:34:56.857Z,27.00
2022-08-25T15:37:25.741Z,26.90
2022-08-25T15:40:01.021Z,26.80
2022-08-25T15:42:30.225Z,26.80
2022-08-25T15:45:00.695Z,26.70
2022-08-25T15:47:29.986Z,26.70
2022-08-25T15:50:07.006Z,26.60
2022-08-25T15:52:46.683Z,26.60
2022-08-25T15:55:19.832Z,26.50
2022-08-25T15:57:49.745Z,26.40
2022-08-25T16:00:21.434Z,26.30
2022-08-25T16:02:51.077Z,26.20
2022-08-25T16:05:25.752Z,26.20
2022-08-25T16:07:55.310Z,26.10
2022-08-25T16:10:24.281Z,26.10
2022-08-25T16:12:54.080Z,26.00
2022-08-25T16:15:28.919Z,26.00
2022-08-25T16:18:00.266Z,25.90
2022-08-25T16:20:29.671Z,25.90
2022-08-25T16:23:00.958Z,25.90
2022-08-25T16:25:54.689Z,25.80
2022-08-25T16:28:24.480Z,25.70
2022-08-25T16:30:55.364Z,25.60
2022-08-25T16:33:23.970Z,25.60
2022-08-25T16:35:54.117Z,25.50
2022-08-25T16:38:22.820Z,25.50
2022-08-25T16:40:52.144Z,25.40
2022-08-25T16:43:20.907Z,25.30
2022-08-25T16:45:57.966Z,25.20
2022-08-25T16:48:28.585Z,25.10
2022-08-25T16:50:57.555Z,25.00
2022-08-25T16:53:44.931Z,25.00
2022-08-25T16:56:17.421Z,24.90
2022-08-25T16:58:46.268Z,24.80
2022-08-25T17:01:22.021Z,24.70
2022-08-25T17:03:53.638Z,24.60
2022-08-25T17:06:26.627Z,24.40
2022-08-25T17:08:55.703Z,24.30
2022-08-25T17:11:27.374Z,24.10
2022-08-25T17:13:58.991Z,24.00
2022-08-25T17:16:31.373Z,23.90
2022-08-25T17:19:11.714Z,23.80
2022-08-25T17:21:44.932Z,23.60
2022-08-25T17:24:16.910Z,23.50
2022-08-25T17:26:50.845Z,23.40
2022-08-25T17:29:20.575Z,23.30
2022-08-25T17:31:51.586Z,23.20
2022-08-25T17:34:23.385Z,23.10
2022-08-25T17:36:53.419Z,23.00
2022-08-25T17:39:23.748Z,22.80
2022-08-25T17:41:53.847Z,22.70
2022-08-25T17:44:22.577Z,22.60
2022-08-25T17:46:51.930Z,22.50
2022-08-25T17:49:22.602Z,22.50
2022-08-25T17:51:51.949Z,22.40
2022-08-25T17:54:20.760Z,22.30
2022-08-25T17:56:49.703Z,22.20
2022-08-25T17:59:20.427Z,22.10
2022-08-25T18:01:50.255Z,22.10
2022-08-25T18:04:27.285Z,22.00
2022-08-25T18:06:58.704Z,21.90
2022-08-25T18:09:27.544Z,21.80
2022-08-25T18:11:56.779Z,21.60
2022-08-25T18:14:25.893Z,21.40
2022-08-25T18:16:55.205Z,21.30
2022-08-25T18:19:25.387Z,21.20
2022-08-25T18:21:57.968Z,21.10
2022-08-25T18:24:26.846Z,21.10
2022-08-25T18:26:56.523Z,21.00
2022-08-25T18:29:25.650Z,20.90
2022-08-25T18:32:00.201Z,20.90
2022-08-25T18:34:31.968Z,20.80
2022-08-25T18:37:21.635Z,20.70
2022-08-25T18:40:09.342Z,20.60
2022-08-25T18:42:38.626Z,20.50
2022-08-25T18:45:12.480Z,20.40
2022-08-25T18:47:41.649Z,20.30
2022-08-25T18:50:12.651Z,20.30
2022-08-25T18:52:42.202Z,20.30
2022-08-25T18:55:12.527Z,20.20
2022-08-25T18:57:42.849Z,20.20
2022-08-25T19:00:21.769Z,20.10
2022-08-25T19:02:54.677Z,20.10
2022-08-25T19:05:31.822Z,20.10
2022-08-25T19:08:03.151Z,20.10
2022-08-25T19:10:34.052Z,20.00
2022-08-25T19:13:07.868Z,20.00
2022-08-25T19:15:49.872Z,20.00
2022-08-25T19:18:28.928Z,19.90
2022-08-25T19:21:00.015Z,20.00
2022-08-25T19:23:28.856Z,20.00
2022-08-25T19:25:57.434Z,20.00
2022-08-25T19:28:27.149Z,19.90
2022-08-25T19:30:56.194Z,19.80
2022-08-25T19:33:42.129Z,19.80
2022-08-25T19:36:15.578Z,19.80
2022-08-25T19:38:45.247Z,19.80
2022-08-25T19:41:15.226Z,19.80
2022-08-25T19:43:55.447Z,19.80
2022-08-25T19:46:29.032Z,19.80
2022-08-25T19:49:19.366Z,19.90
2022-08-25T19:51:53.679Z,19.90
2022-08-25T19:54:27.808Z,19.90
2022-08-25T19:56:57.757Z,19.90
2022-08-25T19:59:40.648Z,19.90
2022-08-25T20:02:30.825Z,19.90
2022-08-25T20:05:00.904Z,19.90
2022-08-25T20:07:33.351Z,19.90
2022-08-25T20:10:03.900Z,20.00
2022-08-25T20:12:33.107Z,20.00
2022-08-25T20:15:03.412Z,20.10
2022-08-25T20:17:33.661Z,20.00
2022-08-25T20:20:23.102Z,20.10
2022-08-25T20:22:53.787Z,20.10
2022-08-25T20:25:26.562Z,20.10
2022-08-25T20:28:05.690Z,20.20
2022-08-25T20:30:45.359Z,20.20
2022-08-25T20:33:14.389Z,20.30
2022-08-25T20:35:53.158Z,20.20
2022-08-25T20:38:48.157Z,20.20
2022-08-25T20:41:17.070Z,20.20
2022-08-25T20:43:47.027Z,20.20
2022-08-25T20:46:16.591Z,20.30
2022-08-25T20:48:45.559Z,20.20
2022-08-25T20:51:14.753Z,20.20
2022-08-25T20:53:49.125Z,20.10
2022-08-25T20:56:21.014Z,20.10
2022-08-25T20:58:49.934Z,20.10
2022-08-25T21:01:23.079Z,20.00
2022-08-25T21:03:52.825Z,20.00
2022-08-25T21:06:21.750Z,20.10
2022-08-25T21:08:52.185Z,20.00
2022-08-25T21:11:22.254Z,19.90
2022-08-25T21:13:51.496Z,19.90
2022-08-25T21:16:20.507Z,19.90
2022-08-25T21:18:49.185Z,19.80
2022-08-25T21:21:18.444Z,19.80
2022-08-25T21:23:53.118Z,19.80
2022-08-25T21:26:26.728Z,19.80
2022-08-25T21:28:59.100Z,19.80
2022-08-25T21:31:29.571Z,19.70
2022-08-25T21:34:00.658Z,19.80
2022-08-25T21:36:32.375Z,19.70
2022-08-25T21:39:02.837Z,19.70
2022-08-25T21:41:34.399Z,19.70
2022-08-25T21:44:04.016Z,19.70
2022-08-25T21:46:35.904Z,19.70
2022-08-25T21:49:08.463Z,19.70
2022-08-25T21:51:42.616Z,19.70
2022-08-25T21:54:15.874Z,19.60
2022-08-25T21:56:50.437Z,19.60
2022-08-25T21:59:24.076Z,19.60
2022-08-25T22:01:56.746Z,19.60
2022-08-25T22:04:26.282Z,19.60
2022-08-25T22:06:55.920Z,19.60
2022-08-25T22:09:40.255Z,19.60
2022-08-25T22:12:10.537Z,19.60
2022-08-25T22:14:40.216Z,19.60
2022-08-25T22:17:16.482Z,19.60
2022-08-25T22:19:48.691Z,19.50
2022-08-25T22:22:23.861Z,19.60
2022-08-25T22:24:56.263Z,19.50
2022-08-25T22:27:25.680Z,19.60
2022-08-25T22:29:54.582Z,19.60
2022-08-25T22:32:23.251Z,19.60
2022-08-25T22:34:52.852Z,19.60
2022-08-25T22:37:21.656Z,19.50
2022-08-25T22:39:50.612Z,19.50
2022-08-25T22:42:25.486Z,19.50
2022-08-25T22:44:55.536Z,19.50
2022-08-25T22:47:24.355Z,19.40
2022-08-25T22:49:55.917Z,19.40
2022-08-25T22:52:33.325Z,19.40
2022-08-25T22:55:03.888Z,19.40
2022-08-25T22:57:35.204Z,19.40
2022-08-25T23:00:05.394Z,19.30
2022-08-25T23:02:36.636Z,19.40
2022-08-25T23:05:07.326Z,19.40
2022-08-25T23:07:37.487Z,19.30
2022-08-25T23:10:12.083Z,19.30
2022-08-25T23:12:44.074Z,19.30
2022-08-25T23:15:14.353Z,19.30
2022-08-25T23:17:43.246Z,19.30
2022-08-25T23:20:26.191Z,19.30
2022-08-25T23:22:56.038Z,19.30
2022-08-25T23:25:30.149Z,19.40
2022-08-25T23:28:00.650Z,19.40
2022-08-25T23:30:30.421Z,19.30
2022-08-25T23:32:59.484Z,19.30
2022-08-25T23:35:35.857Z,19.30
2022-08-25T23:38:05.216Z,19.30
2022-08-25T23:40:35.182Z,19.30
2022-08-25T23:43:33.479Z,19.30
2022-08-25T23:46:03.478Z,19.30
2022-08-25T23:48:32.841Z,19.30
2022-08-25T23:51:02.006Z,19.20
2022-08-25T23:53:31.468Z,19.30
2022-08-25T23:56:00.793Z,19.20
2022-08-25T23:58:30.512Z,19.10
